Airfield :
LOGIN :

Register | Disclaimer

   EN    FR    IT 

 










Legend :    VFR   Marginal VFR   IFR   Intensive IFR   Very Intensive IFR
Visi :
Ceiling :
>= 8 km
>= 3000ft
5 to 8 km
1000 to 3000 ft
1500m to 5 km
500 to 1000 ft
800 to 1500m
200 to 500 ft
< 800m
< 200 ft
Symbols :   Thunderstorms  Fog  Heavy snow  Heavy precipitations  Wind > 20 kt
SIGMETs :     Misc.  Thunderstorms  Icing  Turbulence  Mountain Waves  Volcanic Ashes






- Airport Elevation : 277 ft
- IATA code : JER


EGJJ - Jersey

CURRENT METAR :
  • 260020Z AUTO 27009KT 3600 BR OVC003/// 16/16 Q1011

EXPIRED METARs :
  • 252350Z AUTO 26010KT 4300 BR BKN002/// BKN003/// 16/16 Q1011
  • 252320Z AUTO 26009KT 3800 BR SCT002/// 16/16 Q1011
  • 252250Z AUTO 26006KT 3200 BR BKN002/// 16/16 Q1011
  • 252220Z AUTO 26007KT 2200 BR OVC002/// 16/16 Q1011
  • 252150Z AUTO 26007KT 4100 BR SCT006/// BKN008/// 16/16 Q1011

TAF TAF EGJJ
Valid from the 26 at 00:00 until the 26 at 09:00 UTC


252301Z 2600/2609 28006KT 3000 BR BKN002
TEMPO 2600/2606 6000 SCT008
PROB40
TEMPO 2601/2606 0500 FG BKN000
BECMG 2606/2608 9999 NSW BKN014
ATIS : +44 1534 498 073



MET'MAP, your aeronautical weather chart ! - Copyright ORBIFLY December 2007 - Disclaimer

ORBIFLY MET'MAP TEAM :

Programming & Development : Alexandra Zaïnal
Concept & original design : Baudouin d'Aumeries
Assistance for programming : Marc-Olivier Méhu
Technical & hardware support : Manuel Goepfert

Contact : metmap@orbifly.com




SOURCES & CREDITS :

   NOAA